sensor_id;sensor_type;location;lat;lon;timestamp;temperature;humidity
5697;DHT22;2873;50.966;7.210;2023-04-24T00:02:02;12.50;99.90
5697;DHT22;2873;50.966;7.210;2023-04-24T00:04:29;12.50;99.90
5697;DHT22;2873;50.966;7.210;2023-04-24T00:06:55;12.50;99.90
5697;DHT22;2873;50.966;7.210;2023-04-24T00:09:22;12.40;99.90
5697;DHT22;2873;50.966;7.210;2023-04-24T00:11:48;12.40;99.90
5697;DHT22;2873;50.966;7.210;2023-04-24T00:14:13;12.30;99.90
5697;DHT22;2873;50.966;7.210;2023-04-24T00:16:39;12.30;99.90
5697;DHT22;2873;50.966;7.210;2023-04-24T00:19:05;12.30;99.90
5697;DHT22;2873;50.966;7.210;2023-04-24T00:21:31;12.30;99.90
5697;DHT22;2873;50.966;7.210;2023-04-24T00:23:58;12.30;99.90
5697;DHT22;2873;50.966;7.210;2023-04-24T00:26:23;12.30;99.90
5697;DHT22;2873;50.966;7.210;2023-04-24T00:28:49;12.40;99.90
5697;DHT22;2873;50.966;7.210;2023-04-24T00:31:15;12.30;99.90
5697;DHT22;2873;50.966;7.210;2023-04-24T00:33:40;12.40;99.90
5697;DHT22;2873;50.966;7.210;2023-04-24T00:36:06;12.40;99.90
5697;DHT22;2873;50.966;7.210;2023-04-24T00:38:32;12.50;99.90
5697;DHT22;2873;50.966;7.210;2023-04-24T00:40:58;12.50;99.90
5697;DHT22;2873;50.966;7.210;2023-04-24T00:43:23;12.50;99.90
5697;DHT22;2873;50.966;7.210;2023-04-24T00:45:50;12.50;99.90
5697;DHT22;2873;50.966;7.210;2023-04-24T00:48:16;12.60;99.90
5697;DHT22;2873;50.966;7.210;2023-04-24T00:50:42;12.60;99.90
5697;DHT22;2873;50.966;7.210;2023-04-24T00:53:07;12.60;99.90
5697;DHT22;2873;50.966;7.210;2023-04-24T00:55:33;12.50;99.90
5697;DHT22;2873;50.966;7.210;2023-04-24T00:57:59;12.60;99.90
5697;DHT22;2873;50.966;7.210;2023-04-24T01:00:25;12.60;99.90
5697;DHT22;2873;50.966;7.210;2023-04-24T01:02:51;12.60;99.90
5697;DHT22;2873;50.966;7.210;2023-04-24T01:05:17;12.40;99.90
5697;DHT22;2873;50.966;7.210;2023-04-24T01:07:45;12.50;99.90
5697;DHT22;2873;50.966;7.210;2023-04-24T01:10:13;12.50;99.90
5697;DHT22;2873;50.966;7.210;2023-04-24T01:12:39;12.50;99.90
5697;DHT22;2873;50.966;7.210;2023-04-24T01:15:06;12.60;99.90
5697;DHT22;2873;50.966;7.210;2023-04-24T01:17:34;12.60;99.90
5697;DHT22;2873;50.966;7.210;2023-04-24T01:20:00;12.40;99.90
5697;DHT22;2873;50.966;7.210;2023-04-24T01:22:26;12.50;99.90
5697;DHT22;2873;50.966;7.210;2023-04-24T01:24:52;12.60;99.90
5697;DHT22;2873;50.966;7.210;2023-04-24T01:27:19;12.60;99.90
5697;DHT22;2873;50.966;7.210;2023-04-24T01:29:45;12.70;99.90
5697;DHT22;2873;50.966;7.210;2023-04-24T01:32:11;12.70;99.90
5697;DHT22;2873;50.966;7.210;2023-04-24T01:34:37;12.70;99.90
5697;DHT22;2873;50.966;7.210;2023-04-24T01:37:02;12.70;99.90
5697;DHT22;2873;50.966;7.210;2023-04-24T01:39:28;12.60;99.90
5697;DHT22;2873;50.966;7.210;2023-04-24T01:41:54;12.30;99.90
5697;DHT22;2873;50.966;7.210;2023-04-24T01:44:20;12.40;99.90
5697;DHT22;2873;50.966;7.210;2023-04-24T01:46:46;12.30;99.90
5697;DHT22;2873;50.966;7.210;2023-04-24T01:49:12;12.20;99.90
5697;DHT22;2873;50.966;7.210;2023-04-24T01:51:37;12.00;99.90
5697;DHT22;2873;50.966;7.210;2023-04-24T01:54:03;12.10;99.90
5697;DHT22;2873;50.966;7.210;2023-04-24T01:56:29;12.10;99.90
5697;DHT22;2873;50.966;7.210;2023-04-24T01:58:56;12.20;99.90
5697;DHT22;2873;50.966;7.210;2023-04-24T02:01:23;12.10;99.90
5697;DHT22;2873;50.966;7.210;2023-04-24T02:03:49;12.10;99.90
5697;DHT22;2873;50.966;7.210;2023-04-24T02:06:15;12.20;99.90
5697;DHT22;2873;50.966;7.210;2023-04-24T02:08:40;12.20;99.90
5697;DHT22;2873;50.966;7.210;2023-04-24T02:11:06;12.20;99.90
5697;DHT22;2873;50.966;7.210;2023-04-24T02:13:33;12.20;99.90
5697;DHT22;2873;50.966;7.210;2023-04-24T02:15:59;12.30;99.90
5697;DHT22;2873;50.966;7.210;2023-04-24T02:18:24;12.30;99.90
5697;DHT22;2873;50.966;7.210;2023-04-24T02:20:50;12.40;99.90
5697;DHT22;2873;50.966;7.210;2023-04-24T02:23:15;12.40;99.90
5697;DHT22;2873;50.966;7.210;2023-04-24T02:25:41;12.40;99.90
5697;DHT22;2873;50.966;7.210;2023-04-24T02:28:06;12.40;99.90
5697;DHT22;2873;50.966;7.210;2023-04-24T02:30:32;12.40;99.90
5697;DHT22;2873;50.966;7.210;2023-04-24T02:32:58;12.30;99.90
5697;DHT22;2873;50.966;7.210;2023-04-24T02:35:23;12.20;99.90
5697;DHT22;2873;50.966;7.210;2023-04-24T02:37:48;12.10;99.90
5697;DHT22;2873;50.966;7.210;2023-04-24T02:40:14;12.10;99.90
5697;DHT22;2873;50.966;7.210;2023-04-24T02:42:40;12.00;99.90
5697;DHT22;2873;50.966;7.210;2023-04-24T02:45:06;12.10;99.90
5697;DHT22;2873;50.966;7.210;2023-04-24T02:47:31;12.20;99.90
5697;DHT22;2873;50.966;7.210;2023-04-24T02:49:57;12.10;99.90
5697;DHT22;2873;50.966;7.210;2023-04-24T02:52:22;12.10;99.90
5697;DHT22;2873;50.966;7.210;2023-04-24T02:54:48;12.00;99.90
5697;DHT22;2873;50.966;7.210;2023-04-24T02:57:13;12.00;99.90
5697;DHT22;2873;50.966;7.210;2023-04-24T02:59:39;11.90;99.90
5697;DHT22;2873;50.966;7.210;2023-04-24T03:02:04;11.70;99.90
5697;DHT22;2873;50.966;7.210;2023-04-24T03:04:31;11.70;99.90
5697;DHT22;2873;50.966;7.210;2023-04-24T03:06:57;11.50;99.90
5697;DHT22;2873;50.966;7.210;2023-04-24T03:09:23;11.30;99.90
5697;DHT22;2873;50.966;7.210;2023-04-24T03:11:49;11.40;99.90
5697;DHT22;2873;50.966;7.210;2023-04-24T03:14:15;11.10;99.90
5697;DHT22;2873;50.966;7.210;2023-04-24T03:16:40;11.20;99.90
5697;DHT22;2873;50.966;7.210;2023-04-24T03:19:06;11.20;99.90
5697;DHT22;2873;50.966;7.210;2023-04-24T03:21:32;11.20;99.90
5697;DHT22;2873;50.966;7.210;2023-04-24T03:23:58;11.00;99.90
5697;DHT22;2873;50.966;7.210;2023-04-24T03:26:23;10.90;99.90
5697;DHT22;2873;50.966;7.210;2023-04-24T03:28:49;10.90;99.90
5697;DHT22;2873;50.966;7.210;2023-04-24T03:31:14;10.90;99.90
5697;DHT22;2873;50.966;7.210;2023-04-24T03:33:40;10.80;99.90
5697;DHT22;2873;50.966;7.210;2023-04-24T03:36:06;10.80;99.90
5697;DHT22;2873;50.966;7.210;2023-04-24T03:38:32;10.80;99.90
5697;DHT22;2873;50.966;7.210;2023-04-24T03:40:57;10.60;99.90
5697;DHT22;2873;50.966;7.210;2023-04-24T03:43:23;10.60;99.90
5697;DHT22;2873;50.966;7.210;2023-04-24T03:45:48;10.50;99.90
5697;DHT22;2873;50.966;7.210;2023-04-24T03:48:14;10.50;99.90
5697;DHT22;2873;50.966;7.210;2023-04-24T03:50:40;10.40;99.90
5697;DHT22;2873;50.966;7.210;2023-04-24T03:53:05;10.50;99.90
5697;DHT22;2873;50.966;7.210;2023-04-24T03:55:31;10.50;99.90
5697;DHT22;2873;50.966;7.210;2023-04-24T03:57:56;10.50;99.90
5697;DHT22;2873;50.966;7.210;2023-04-24T04:00:22;10.20;99.90
5697;DHT22;2873;50.966;7.210;2023-04-24T04:02:47;10.10;99.90
5697;DHT22;2873;50.966;7.210;2023-04-24T04:05:13;10.30;99.90
5697;DHT22;2873;50.966;7.210;2023-04-24T04:07:39;10.20;99.90
5697;DHT22;2873;50.966;7.210;2023-04-24T04:10:05;10.30;99.90
5697;DHT22;2873;50.966;7.210;2023-04-24T04:12:32;10.20;99.90
5697;DHT22;2873;50.966;7.210;2023-04-24T04:14:57;10.20;99.90
5697;DHT22;2873;50.966;7.210;2023-04-24T04:17:23;10.40;99.90
5697;DHT22;2873;50.966;7.210;2023-04-24T04:19:48;10.20;99.90
5697;DHT22;2873;50.966;7.210;2023-04-24T04:22:14;10.30;99.90
5697;DHT22;2873;50.966;7.210;2023-04-24T04:24:40;10.30;99.90
5697;DHT22;2873;50.966;7.210;2023-04-24T04:27:06;10.30;99.90
5697;DHT22;2873;50.966;7.210;2023-04-24T04:29:32;10.30;99.90
5697;DHT22;2873;50.966;7.210;2023-04-24T04:31:58;10.30;99.90
5697;DHT22;2873;50.966;7.210;2023-04-24T04:34:24;10.30;99.90
5697;DHT22;2873;50.966;7.210;2023-04-24T04:36:49;10.20;99.90
5697;DHT22;2873;50.966;7.210;2023-04-24T04:39:16;10.20;99.90
5697;DHT22;2873;50.966;7.210;2023-04-24T04:41:43;10.20;99.90
5697;DHT22;2873;50.966;7.210;2023-04-24T04:44:09;10.20;99.90
5697;DHT22;2873;50.966;7.210;2023-04-24T04:46:35;10.10;99.90
5697;DHT22;2873;50.966;7.210;2023-04-24T04:49:02;10.20;99.90
5697;DHT22;2873;50.966;7.210;2023-04-24T04:51:28;10.10;99.90
5697;DHT22;2873;50.966;7.210;2023-04-24T04:53:54;10.10;99.90
5697;DHT22;2873;50.966;7.210;2023-04-24T04:56:20;10.10;99.90
5697;DHT22;2873;50.966;7.210;2023-04-24T04:58:45;10.10;99.90
5697;DHT22;2873;50.966;7.210;2023-04-24T05:01:11;10.10;99.90
5697;DHT22;2873;50.966;7.210;2023-04-24T05:03:36;10.20;99.90
5697;DHT22;2873;50.966;7.210;2023-04-24T05:06:02;10.10;99.90
5697;DHT22;2873;50.966;7.210;2023-04-24T05:08:28;10.20;99.90
5697;DHT22;2873;50.966;7.210;2023-04-24T05:10:54;10.10;99.90
5697;DHT22;2873;50.966;7.210;2023-04-24T05:13:20;10.00;99.90
5697;DHT22;2873;50.966;7.210;2023-04-24T05:15:45;10.10;99.90
5697;DHT22;2873;50.966;7.210;2023-04-24T05:18:11;10.00;99.90
5697;DHT22;2873;50.966;7.210;2023-04-24T05:20:36;10.10;99.90
5697;DHT22;2873;50.966;7.210;2023-04-24T05:23:02;10.00;99.90
5697;DHT22;2873;50.966;7.210;2023-04-24T05:25:28;9.90;99.90
5697;DHT22;2873;50.966;7.210;2023-04-24T05:27:53;9.80;99.90
5697;DHT22;2873;50.966;7.210;2023-04-24T05:30:19;9.80;99.90
5697;DHT22;2873;50.966;7.210;2023-04-24T05:32:45;10.00;99.90
5697;DHT22;2873;50.966;7.210;2023-04-24T05:35:11;10.00;99.90
5697;DHT22;2873;50.966;7.210;2023-04-24T05:37:37;10.00;99.90
5697;DHT22;2873;50.966;7.210;2023-04-24T05:40:03;10.10;99.90
5697;DHT22;2873;50.966;7.210;2023-04-24T05:42:30;10.00;99.90
5697;DHT22;2873;50.966;7.210;2023-04-24T05:44:56;9.90;99.90
5697;DHT22;2873;50.966;7.210;2023-04-24T05:47:21;10.00;99.90
5697;DHT22;2873;50.966;7.210;2023-04-24T05:49:47;10.00;99.90
5697;DHT22;2873;50.966;7.210;2023-04-24T05:52:13;10.00;99.90
5697;DHT22;2873;50.966;7.210;2023-04-24T05:54:39;10.00;99.90
5697;DHT22;2873;50.966;7.210;2023-04-24T05:57:05;10.00;99.90
5697;DHT22;2873;50.966;7.210;2023-04-24T05:59:36;9.90;99.90
5697;DHT22;2873;50.966;7.210;2023-04-24T06:02:04;9.90;99.90
5697;DHT22;2873;50.966;7.210;2023-04-24T06:04:29;9.90;99.90
5697;DHT22;2873;50.966;7.210;2023-04-24T06:06:55;9.90;99.90
5697;DHT22;2873;50.966;7.210;2023-04-24T06:09:25;9.90;99.90
5697;DHT22;2873;50.966;7.210;2023-04-24T06:11:50;9.90;99.90
5697;DHT22;2873;50.966;7.210;2023-04-24T06:14:19;9.80;99.90
5697;DHT22;2873;50.966;7.210;2023-04-24T06:16:45;9.80;99.90
5697;DHT22;2873;50.966;7.210;2023-04-24T06:19:10;9.80;99.90
5697;DHT22;2873;50.966;7.210;2023-04-24T06:21:36;9.70;99.90
5697;DHT22;2873;50.966;7.210;2023-04-24T06:24:01;9.50;99.90
5697;DHT22;2873;50.966;7.210;2023-04-24T06:26:27;9.50;99.90
5697;DHT22;2873;50.966;7.210;2023-04-24T06:28:53;9.60;99.90
5697;DHT22;2873;50.966;7.210;2023-04-24T06:31:22;9.40;99.90
5697;DHT22;2873;50.966;7.210;2023-04-24T06:33:48;9.40;99.90
5697;DHT22;2873;50.966;7.210;2023-04-24T06:36:14;9.40;99.90
5697;DHT22;2873;50.966;7.210;2023-04-24T06:38:41;9.40;99.90
5697;DHT22;2873;50.966;7.210;2023-04-24T06:41:06;9.40;99.90
5697;DHT22;2873;50.966;7.210;2023-04-24T06:43:33;9.40;99.90
5697;DHT22;2873;50.966;7.210;2023-04-24T06:45:59;9.40;99.90
5697;DHT22;2873;50.966;7.210;2023-04-24T06:48:25;9.30;99.90
5697;DHT22;2873;50.966;7.210;2023-04-24T06:50:51;9.30;99.90
5697;DHT22;2873;50.966;7.210;2023-04-24T06:53:17;9.20;99.90
5697;DHT22;2873;50.966;7.210;2023-04-24T06:55:42;9.20;99.90
5697;DHT22;2873;50.966;7.210;2023-04-24T06:58:10;9.00;99.90
5697;DHT22;2873;50.966;7.210;2023-04-24T07:00:36;9.20;99.90
5697;DHT22;2873;50.966;7.210;2023-04-24T07:03:01;9.20;99.90
5697;DHT22;2873;50.966;7.210;2023-04-24T07:05:27;9.30;99.90
5697;DHT22;2873;50.966;7.210;2023-04-24T07:07:53;9.30;99.90
5697;DHT22;2873;50.966;7.210;2023-04-24T07:10:19;9.30;99.90
5697;DHT22;2873;50.966;7.210;2023-04-24T07:12:45;9.40;99.90
5697;DHT22;2873;50.966;7.210;2023-04-24T07:15:12;9.60;99.90
5697;DHT22;2873;50.966;7.210;2023-04-24T07:17:37;9.50;99.90
5697;DHT22;2873;50.966;7.210;2023-04-24T07:20:04;9.60;99.90
5697;DHT22;2873;50.966;7.210;2023-04-24T07:22:30;9.40;99.90
5697;DHT22;2873;50.966;7.210;2023-04-24T07:24:56;9.20;99.90
5697;DHT22;2873;50.966;7.210;2023-04-24T07:27:22;9.10;99.90
5697;DHT22;2873;50.966;7.210;2023-04-24T07:29:47;9.10;99.90
5697;DHT22;2873;50.966;7.210;2023-04-24T07:32:13;9.10;99.90
5697;DHT22;2873;50.966;7.210;2023-04-24T07:34:39;9.20;99.90
5697;DHT22;2873;50.966;7.210;2023-04-24T07:37:04;9.10;99.90
5697;DHT22;2873;50.966;7.210;2023-04-24T07:39:30;9.10;99.90
5697;DHT22;2873;50.966;7.210;2023-04-24T07:41:56;9.20;99.90
5697;DHT22;2873;50.966;7.210;2023-04-24T07:44:22;9.10;99.90
5697;DHT22;2873;50.966;7.210;2023-04-24T07:46:47;9.00;99.90
5697;DHT22;2873;50.966;7.210;2023-04-24T07:49:13;9.10;99.90
5697;DHT22;2873;50.966;7.210;2023-04-24T07:51:39;9.10;99.90
5697;DHT22;2873;50.966;7.210;2023-04-24T07:54:05;9.30;99.90
5697;DHT22;2873;50.966;7.210;2023-04-24T07:56:32;9.30;99.90
5697;DHT22;2873;50.966;7.210;2023-04-24T07:58:58;9.40;99.90
5697;DHT22;2873;50.966;7.210;2023-04-24T08:01:23;9.40;99.90
5697;DHT22;2873;50.966;7.210;2023-04-24T08:03:50;9.10;99.90
5697;DHT22;2873;50.966;7.210;2023-04-24T08:06:15;8.90;99.90
5697;DHT22;2873;50.966;7.210;2023-04-24T08:08:41;9.10;99.90
5697;DHT22;2873;50.966;7.210;2023-04-24T08:11:06;9.10;99.90
5697;DHT22;2873;50.966;7.210;2023-04-24T08:13:32;9.00;99.90
5697;DHT22;2873;50.966;7.210;2023-04-24T08:15:58;8.90;99.90
5697;DHT22;2873;50.966;7.210;2023-04-24T08:18:23;8.60;99.90
5697;DHT22;2873;50.966;7.210;2023-04-24T08:20:49;8.80;99.90
5697;DHT22;2873;50.966;7.210;2023-04-24T08:23:15;8.70;99.90
5697;DHT22;2873;50.966;7.210;2023-04-24T08:25:40;8.70;99.90
5697;DHT22;2873;50.966;7.210;2023-04-24T08:28:07;8.50;99.90
5697;DHT22;2873;50.966;7.210;2023-04-24T08:30:35;8.70;99.90
5697;DHT22;2873;50.966;7.210;2023-04-24T08:33:02;8.60;99.90
5697;DHT22;2873;50.966;7.210;2023-04-24T08:35:29;8.40;99.90
5697;DHT22;2873;50.966;7.210;2023-04-24T08:37:54;8.50;99.90
5697;DHT22;2873;50.966;7.210;2023-04-24T08:40:27;8.40;99.90
5697;DHT22;2873;50.966;7.210;2023-04-24T08:42:54;8.40;99.90
5697;DHT22;2873;50.966;7.210;2023-04-24T08:45:21;8.40;99.90
5697;DHT22;2873;50.966;7.210;2023-04-24T08:47:47;8.30;99.90
5697;DHT22;2873;50.966;7.210;2023-04-24T08:50:14;8.20;99.90
5697;DHT22;2873;50.966;7.210;2023-04-24T08:52:42;8.20;99.90
5697;DHT22;2873;50.966;7.210;2023-04-24T08:55:08;8.30;99.90
5697;DHT22;2873;50.966;7.210;2023-04-24T08:57:35;8.30;99.90
5697;DHT22;2873;50.966;7.210;2023-04-24T09:00:01;8.20;99.90
5697;DHT22;2873;50.966;7.210;2023-04-24T09:02:28;8.10;99.90
5697;DHT22;2873;50.966;7.210;2023-04-24T09:04:56;8.20;99.90
5697;DHT22;2873;50.966;7.210;2023-04-24T09:07:24;8.20;99.90
5697;DHT22;2873;50.966;7.210;2023-04-24T09:09:51;8.00;99.90
5697;DHT22;2873;50.966;7.210;2023-04-24T09:12:17;8.20;99.90
5697;DHT22;2873;50.966;7.210;2023-04-24T09:14:44;8.20;99.90
5697;DHT22;2873;50.966;7.210;2023-04-24T09:17:11;8.10;99.90
5697;DHT22;2873;50.966;7.210;2023-04-24T09:19:37;7.90;99.90
5697;DHT22;2873;50.966;7.210;2023-04-24T09:22:06;7.90;99.90
5697;DHT22;2873;50.966;7.210;2023-04-24T09:24:33;8.00;99.90
5697;DHT22;2873;50.966;7.210;2023-04-24T09:26:59;8.10;99.90
5697;DHT22;2873;50.966;7.210;2023-04-24T09:29:27;8.20;99.90
5697;DHT22;2873;50.966;7.210;2023-04-24T09:31:52;8.10;99.90
5697;DHT22;2873;50.966;7.210;2023-04-24T09:34:26;8.20;99.90
5697;DHT22;2873;50.966;7.210;2023-04-24T09:36:52;8.20;99.90
5697;DHT22;2873;50.966;7.210;2023-04-24T09:39:18;8.30;99.90
5697;DHT22;2873;50.966;7.210;2023-04-24T09:41:56;8.20;99.90
5697;DHT22;2873;50.966;7.210;2023-04-24T09:44:27;8.20;99.90
5697;DHT22;2873;50.966;7.210;2023-04-24T09:46:58;8.40;99.90
5697;DHT22;2873;50.966;7.210;2023-04-24T09:49:24;8.40;99.90
5697;DHT22;2873;50.966;7.210;2023-04-24T09:51:51;8.40;99.90
5697;DHT22;2873;50.966;7.210;2023-04-24T09:54:21;8.50;99.90
5697;DHT22;2873;50.966;7.210;2023-04-24T09:56:49;8.50;99.90
5697;DHT22;2873;50.966;7.210;2023-04-24T09:59:17;8.50;99.90
5697;DHT22;2873;50.966;7.210;2023-04-24T10:01:43;8.50;99.90
5697;DHT22;2873;50.966;7.210;2023-04-24T10:04:27;8.50;99.90
5697;DHT22;2873;50.966;7.210;2023-04-24T10:06:55;8.70;99.90
5697;DHT22;2873;50.966;7.210;2023-04-24T10:09:23;8.80;99.90
5697;DHT22;2873;50.966;7.210;2023-04-24T10:11:50;8.90;99.90
5697;DHT22;2873;50.966;7.210;2023-04-24T10:14:18;9.00;99.90
5697;DHT22;2873;50.966;7.210;2023-04-24T10:16:46;9.10;99.90
5697;DHT22;2873;50.966;7.210;2023-04-24T10:19:16;9.10;99.90
5697;DHT22;2873;50.966;7.210;2023-04-24T10:21:44;9.20;99.90
5697;DHT22;2873;50.966;7.210;2023-04-24T10:24:14;9.20;99.90
5697;DHT22;2873;50.966;7.210;2023-04-24T10:26:41;9.30;99.90
5697;DHT22;2873;50.966;7.210;2023-04-24T10:29:07;9.40;99.90
5697;DHT22;2873;50.966;7.210;2023-04-24T10:31:37;9.50;99.90
5697;DHT22;2873;50.966;7.210;2023-04-24T10:34:05;9.50;99.90
5697;DHT22;2873;50.966;7.210;2023-04-24T10:36:33;9.70;99.90
5697;DHT22;2873;50.966;7.210;2023-04-24T10:39:02;9.80;99.90
5697;DHT22;2873;50.966;7.210;2023-04-24T10:41:32;9.80;99.90
5697;DHT22;2873;50.966;7.210;2023-04-24T10:44:07;9.90;99.90
5697;DHT22;2873;50.966;7.210;2023-04-24T10:46:34;10.10;99.90
5697;DHT22;2873;50.966;7.210;2023-04-24T10:49:04;10.10;99.90
5697;DHT22;2873;50.966;7.210;2023-04-24T10:51:46;10.20;99.90
5697;DHT22;2873;50.966;7.210;2023-04-24T10:54:35;10.20;99.90
5697;DHT22;2873;50.966;7.210;2023-04-24T10:59:49;10.40;99.90
5697;DHT22;2873;50.966;7.210;2023-04-24T11:02:36;10.40;99.90
5697;DHT22;2873;50.966;7.210;2023-04-24T11:05:06;10.40;99.90
5697;DHT22;2873;50.966;7.210;2023-04-24T11:08:14;10.40;99.90
5697;DHT22;2873;50.966;7.210;2023-04-24T11:10:44;10.50;99.90
5697;DHT22;2873;50.966;7.210;2023-04-24T11:13:10;10.40;99.90
5697;DHT22;2873;50.966;7.210;2023-04-24T11:15:41;10.50;99.90
5697;DHT22;2873;50.966;7.210;2023-04-24T11:18:13;10.50;99.90
5697;DHT22;2873;50.966;7.210;2023-04-24T11:20:42;10.50;99.90
5697;DHT22;2873;50.966;7.210;2023-04-24T11:23:12;10.40;99.90
5697;DHT22;2873;50.966;7.210;2023-04-24T11:25:38;10.40;99.90
5697;DHT22;2873;50.966;7.210;2023-04-24T11:28:04;10.40;99.90
5697;DHT22;2873;50.966;7.210;2023-04-24T11:30:32;10.40;99.90
5697;DHT22;2873;50.966;7.210;2023-04-24T11:33:05;10.40;99.90
5697;DHT22;2873;50.966;7.210;2023-04-24T11:35:36;10.40;99.90
5697;DHT22;2873;50.966;7.210;2023-04-24T11:38:04;10.30;99.90
5697;DHT22;2873;50.966;7.210;2023-04-24T11:40:31;10.30;99.90
5697;DHT22;2873;50.966;7.210;2023-04-24T11:42:59;10.30;99.90
5697;DHT22;2873;50.966;7.210;2023-04-24T11:45:28;10.20;99.90
5697;DHT22;2873;50.966;7.210;2023-04-24T11:47:54;10.30;99.90
5697;DHT22;2873;50.966;7.210;2023-04-24T11:50:22;10.40;99.90
5697;DHT22;2873;50.966;7.210;2023-04-24T11:52:50;10.40;99.90
5697;DHT22;2873;50.966;7.210;2023-04-24T11:57:53;10.50;99.90
5697;DHT22;2873;50.966;7.210;2023-04-24T12:00:24;10.50;99.90
5697;DHT22;2873;50.966;7.210;2023-04-24T12:02:51;10.60;99.90
5697;DHT22;2873;50.966;7.210;2023-04-24T12:05:24;10.60;99.90
5697;DHT22;2873;50.966;7.210;2023-04-24T12:07:51;10.70;99.90
5697;DHT22;2873;50.966;7.210;2023-04-24T12:10:24;10.70;99.90
5697;DHT22;2873;50.966;7.210;2023-04-24T12:12:50;10.70;99.90
5697;DHT22;2873;50.966;7.210;2023-04-24T12:15:18;10.80;99.90
5697;DHT22;2873;50.966;7.210;2023-04-24T12:17:44;10.80;99.90
5697;DHT22;2873;50.966;7.210;2023-04-24T12:20:11;10.80;99.90
5697;DHT22;2873;50.966;7.210;2023-04-24T12:22:53;10.80;99.90
5697;DHT22;2873;50.966;7.210;2023-04-24T12:25:21;10.90;99.90
5697;DHT22;2873;50.966;7.210;2023-04-24T12:27:54;11.10;99.90
5697;DHT22;2873;50.966;7.210;2023-04-24T12:30:20;11.10;99.90
5697;DHT22;2873;50.966;7.210;2023-04-24T12:32:47;11.20;99.90
5697;DHT22;2873;50.966;7.210;2023-04-24T12:35:18;11.20;99.90
5697;DHT22;2873;50.966;7.210;2023-04-24T12:37:45;11.20;99.90
5697;DHT22;2873;50.966;7.210;2023-04-24T12:40:11;11.20;99.90
5697;DHT22;2873;50.966;7.210;2023-04-24T12:42:50;11.30;99.90
5697;DHT22;2873;50.966;7.210;2023-04-24T12:45:17;11.30;99.90
5697;DHT22;2873;50.966;7.210;2023-04-24T12:47:44;11.30;99.90
5697;DHT22;2873;50.966;7.210;2023-04-24T12:50:11;11.40;99.90
5697;DHT22;2873;50.966;7.210;2023-04-24T12:52:37;11.60;99.90
5697;DHT22;2873;50.966;7.210;2023-04-24T12:55:03;11.70;99.90
5697;DHT22;2873;50.966;7.210;2023-04-24T12:57:30;11.90;99.90
5697;DHT22;2873;50.966;7.210;2023-04-24T12:59:58;12.20;99.90
5697;DHT22;2873;50.966;7.210;2023-04-24T13:02:24;12.50;99.90
5697;DHT22;2873;50.966;7.210;2023-04-24T13:04:51;12.50;99.90
5697;DHT22;2873;50.966;7.210;2023-04-24T13:07:17;12.60;99.90
5697;DHT22;2873;50.966;7.210;2023-04-24T13:09:43;12.60;99.90
5697;DHT22;2873;50.966;7.210;2023-04-24T13:12:10;12.50;99.90
5697;DHT22;2873;50.966;7.210;2023-04-24T13:14:36;12.50;99.90
5697;DHT22;2873;50.966;7.210;2023-04-24T13:17:03;12.30;99.90
5697;DHT22;2873;50.966;7.210;2023-04-24T13:19:29;12.30;99.90
5697;DHT22;2873;50.966;7.210;2023-04-24T13:21:56;12.20;99.90
5697;DHT22;2873;50.966;7.210;2023-04-24T13:24:23;12.30;99.90
5697;DHT22;2873;50.966;7.210;2023-04-24T13:26:52;12.30;99.90
5697;DHT22;2873;50.966;7.210;2023-04-24T13:29:17;12.40;99.90
5697;DHT22;2873;50.966;7.210;2023-04-24T13:31:43;12.40;99.90
5697;DHT22;2873;50.966;7.210;2023-04-24T13:34:08;12.30;99.90
5697;DHT22;2873;50.966;7.210;2023-04-24T13:36:34;12.40;99.90
5697;DHT22;2873;50.966;7.210;2023-04-24T13:39:01;12.50;99.90
5697;DHT22;2873;50.966;7.210;2023-04-24T13:41:28;12.40;99.90
5697;DHT22;2873;50.966;7.210;2023-04-24T13:43:54;12.40;99.90
5697;DHT22;2873;50.966;7.210;2023-04-24T13:46:19;12.20;99.90
5697;DHT22;2873;50.966;7.210;2023-04-24T13:48:45;12.20;99.90
5697;DHT22;2873;50.966;7.210;2023-04-24T13:51:11;12.10;99.90
5697;DHT22;2873;50.966;7.210;2023-04-24T13:53:36;12.20;99.90
5697;DHT22;2873;50.966;7.210;2023-04-24T13:56:04;12.50;99.90
5697;DHT22;2873;50.966;7.210;2023-04-24T13:58:31;12.80;99.90
5697;DHT22;2873;50.966;7.210;2023-04-24T14:00:58;13.10;99.90
5697;DHT22;2873;50.966;7.210;2023-04-24T14:03:23;13.20;99.90
5697;DHT22;2873;50.966;7.210;2023-04-24T14:05:49;13.20;99.90
5697;DHT22;2873;50.966;7.210;2023-04-24T14:08:15;13.00;99.90
5697;DHT22;2873;50.966;7.210;2023-04-24T14:10:40;12.90;99.90
5697;DHT22;2873;50.966;7.210;2023-04-24T14:13:06;12.90;99.90
5697;DHT22;2873;50.966;7.210;2023-04-24T14:15:32;12.90;99.90
5697;DHT22;2873;50.966;7.210;2023-04-24T14:17:58;12.80;99.90
5697;DHT22;2873;50.966;7.210;2023-04-24T14:20:23;12.90;99.90
5697;DHT22;2873;50.966;7.210;2023-04-24T14:22:49;12.90;99.90
5697;DHT22;2873;50.966;7.210;2023-04-24T14:25:14;12.80;99.90
5697;DHT22;2873;50.966;7.210;2023-04-24T14:27:40;12.90;99.90
5697;DHT22;2873;50.966;7.210;2023-04-24T14:30:07;12.90;99.90
5697;DHT22;2873;50.966;7.210;2023-04-24T14:32:33;13.10;99.90
5697;DHT22;2873;50.966;7.210;2023-04-24T14:34:58;13.20;99.90
5697;DHT22;2873;50.966;7.210;2023-04-24T14:37:24;13.30;99.90
5697;DHT22;2873;50.966;7.210;2023-04-24T14:39:49;13.50;99.90
5697;DHT22;2873;50.966;7.210;2023-04-24T14:42:15;13.70;99.90
5697;DHT22;2873;50.966;7.210;2023-04-24T14:44:42;14.00;99.90
5697;DHT22;2873;50.966;7.210;2023-04-24T14:47:07;14.00;99.90
5697;DHT22;2873;50.966;7.210;2023-04-24T14:49:34;13.80;99.90
5697;DHT22;2873;50.966;7.210;2023-04-24T14:51:59;13.60;99.90
5697;DHT22;2873;50.966;7.210;2023-04-24T14:54:25;13.60;99.90
5697;DHT22;2873;50.966;7.210;2023-04-24T14:56:51;13.70;99.90
5697;DHT22;2873;50.966;7.210;2023-04-24T14:59:16;13.80;99.90
5697;DHT22;2873;50.966;7.210;2023-04-24T15:01:42;13.80;99.90
5697;DHT22;2873;50.966;7.210;2023-04-24T15:04:07;13.80;99.90
5697;DHT22;2873;50.966;7.210;2023-04-24T15:06:33;13.80;99.90
5697;DHT22;2873;50.966;7.210;2023-04-24T15:08:59;13.80;99.90
5697;DHT22;2873;50.966;7.210;2023-04-24T15:11:25;13.80;99.90
5697;DHT22;2873;50.966;7.210;2023-04-24T15:13:50;13.90;99.90
5697;DHT22;2873;50.966;7.210;2023-04-24T15:16:16;13.80;99.90
5697;DHT22;2873;50.966;7.210;2023-04-24T15:18:42;14.00;99.90
5697;DHT22;2873;50.966;7.210;2023-04-24T15:21:07;14.10;99.90
5697;DHT22;2873;50.966;7.210;2023-04-24T15:23:33;14.20;99.90
5697;DHT22;2873;50.966;7.210;2023-04-24T15:25:59;14.20;99.90
5697;DHT22;2873;50.966;7.210;2023-04-24T15:28:26;14.30;99.90
5697;DHT22;2873;50.966;7.210;2023-04-24T15:30:51;14.40;99.90
5697;DHT22;2873;50.966;7.210;2023-04-24T15:33:17;14.40;99.90
5697;DHT22;2873;50.966;7.210;2023-04-24T15:35:42;14.30;99.90
5697;DHT22;2873;50.966;7.210;2023-04-24T15:38:08;14.10;99.90
5697;DHT22;2873;50.966;7.210;2023-04-24T15:40:34;14.10;99.90
5697;DHT22;2873;50.966;7.210;2023-04-24T15:42:59;14.00;99.90
5697;DHT22;2873;50.966;7.210;2023-04-24T15:45:25;14.00;99.90
5697;DHT22;2873;50.966;7.210;2023-04-24T15:47:51;13.90;99.90
5697;DHT22;2873;50.966;7.210;2023-04-24T15:53:38;13.80;99.90
5697;DHT22;2873;50.966;7.210;2023-04-24T15:56:04;13.90;99.90
5697;DHT22;2873;50.966;7.210;2023-04-24T15:58:29;13.90;99.90
5697;DHT22;2873;50.966;7.210;2023-04-24T16:00:55;13.90;99.90
5697;DHT22;2873;50.966;7.210;2023-04-24T16:03:21;13.80;99.90
5697;DHT22;2873;50.966;7.210;2023-04-24T16:05:46;13.80;99.90
5697;DHT22;2873;50.966;7.210;2023-04-24T16:08:12;13.80;99.90
5697;DHT22;2873;50.966;7.210;2023-04-24T16:10:41;13.70;99.90
5697;DHT22;2873;50.966;7.210;2023-04-24T16:13:07;13.80;99.90